Time;durP1;ratioP1;P1;durP2;ratioP2;P2;SDS_P1;SDS_P2;PMS_P1;PMS_P2;Temp;Humidity;BMP_temperature;BMP_pressure;BME280_temperature;BME280_humidity;BME280_pressure;Samples;Min_cycle;Max_cycle;Signal;HPM_P1;HPM_P2
2022/09/10 00:00:16;;;;;;;0.50;0.40;;;14.90;99.90;;;;;;5071333;28;20637;-80
2022/09/10 00:02:44;;;;;;;0.63;0.60;;;14.90;99.90;;;;;;5078262;28;20668;-80
2022/09/10 00:05:11;;;;;;;0.40;0.30;;;14.90;99.90;;;;;;5077079;28;20638;-80
2022/09/10 00:07:39;;;;;;;0.43;0.43;;;14.90;99.90;;;;;;5070200;28;20625;-79
2022/09/10 00:10:08;;;;;;;1.80;0.50;;;14.80;99.90;;;;;;5070185;28;21375;-80
2022/09/10 00:12:36;;;;;;;0.60;0.40;;;14.80;99.90;;;;;;5069391;28;20625;-80
2022/09/10 00:15:05;;;;;;;0.40;0.30;;;14.70;99.90;;;;;;5069048;28;21171;-80
2022/09/10 00:17:32;;;;;;;0.50;0.50;;;14.80;99.90;;;;;;5069888;28;20622;-81
2022/09/10 00:19:59;;;;;;;0.57;0.47;;;14.80;99.90;;;;;;5069568;28;21242;-79
2022/09/10 00:22:26;;;;;;;0.40;0.30;;;14.80;99.90;;;;;;5069589;28;20692;-80
2022/09/10 00:24:56;;;;;;;0.37;0.27;;;14.70;99.90;;;;;;5069286;28;20696;-80
2022/09/10 00:27:24;;;;;;;0.50;0.40;;;14.70;99.90;;;;;;5069581;28;20641;-80
2022/09/10 00:29:51;;;;;;;0.30;0.20;;;14.80;99.90;;;;;;5070024;28;20629;-80
2022/09/10 00:32:19;;;;;;;0.40;0.40;;;14.80;99.90;;;;;;5069574;28;20637;-80
2022/09/10 00:34:46;;;;;;;0.43;0.30;;;14.80;99.90;;;;;;5068980;28;20628;-81
2022/09/10 00:37:14;;;;;;;0.70;0.50;;;14.70;99.90;;;;;;5069551;28;20610;-80
2022/09/10 00:39:41;;;;;;;0.30;0.20;;;14.80;99.90;;;;;;5067650;28;20680;-82
2022/09/10 00:42:10;;;;;;;0.40;0.37;;;14.80;99.90;;;;;;5069201;28;20751;-81
2022/09/10 00:45:00;;;;;;;2.63;0.40;;;14.80;99.90;;;;;;5068935;28;20649;-80
2022/09/10 00:47:32;;;;;;;0.80;0.40;;;14.80;99.90;;;;;;5068588;28;20794;-80
2022/09/10 00:50:12;;;;;;;0.40;0.40;;;14.70;99.90;;;;;;5068820;28;20636;-80
2022/09/10 00:52:39;;;;;;;0.70;0.40;;;14.70;99.90;;;;;;5068905;28;20649;-81
2022/09/10 00:55:07;;;;;;;0.40;0.30;;;14.80;99.90;;;;;;5068607;28;21052;-82
2022/09/10 00:57:34;;;;;;;0.33;0.30;;;14.80;99.90;;;;;;5068924;28;20720;-80
2022/09/10 01:00:07;;;;;;;0.50;0.40;;;14.80;99.90;;;;;;5073052;28;20625;-81
2022/09/10 01:02:34;;;;;;;0.60;0.50;;;14.80;99.90;;;;;;5075011;28;20767;-80
2022/09/10 01:05:04;;;;;;;0.30;0.20;;;14.80;99.90;;;;;;5076488;28;20707;-81
2022/09/10 01:07:32;;;;;;;0.50;0.40;;;14.70;99.90;;;;;;5069007;28;20633;-81
2022/09/10 01:10:02;;;;;;;1.13;1.13;;;14.70;99.90;;;;;;5068503;28;21388;-81
2022/09/10 01:12:42;;;;;;;0.30;0.30;;;14.70;99.90;;;;;;5068939;28;20629;-80
2022/09/10 01:15:21;;;;;;;1.33;1.23;;;14.70;99.90;;;;;;5068309;28;20628;-81
2022/09/10 01:18:08;;;;;;;0.50;0.30;;;14.60;99.90;;;;;;5067953;28;20999;-81
2022/09/10 01:20:52;;;;;;;0.40;0.40;;;14.60;99.90;;;;;;5053043;28;20629;-81
2022/09/10 01:23:57;;;;;;;1.70;0.50;;;14.60;99.90;;;;;;5068658;28;20620;-81
2022/09/10 01:26:37;;;;;;;0.60;0.57;;;14.50;99.90;;;;;;5067728;28;20723;-80
2022/09/10 01:29:14;;;;;;;0.90;0.90;;;14.40;99.90;;;;;;5068589;28;20621;-80
2022/09/10 01:31:48;;;;;;;0.40;0.37;;;14.30;99.90;;;;;;5068189;28;20714;-81
2022/09/10 01:34:21;;;;;;;0.50;0.40;;;14.40;99.90;;;;;;5066370;28;20976;-80
2022/09/10 01:36:53;;;;;;;0.80;0.60;;;14.30;99.90;;;;;;5068666;28;20617;-80
2022/09/10 01:39:23;;;;;;;0.40;0.30;;;14.40;99.90;;;;;;5068186;28;20637;-81
2022/09/10 01:41:53;;;;;;;0.50;0.37;;;14.40;99.90;;;;;;5067952;28;21005;-80
2022/09/10 01:44:43;;;;;;;0.80;0.80;;;14.40;99.90;;;;;;5066853;28;20632;-81
2022/09/10 01:47:18;;;;;;;1.33;0.40;;;14.30;99.90;;;;;;5067681;28;20695;-81
2022/09/10 01:50:08;;;;;;;0.40;0.20;;;14.30;99.90;;;;;;5067700;28;20675;-82
2022/09/10 01:52:44;;;;;;;0.80;0.40;;;14.50;99.90;;;;;;5067808;28;21232;-80
2022/09/10 01:55:24;;;;;;;0.47;0.43;;;14.50;99.90;;;;;;5051646;28;20627;-81
2022/09/10 01:57:58;;;;;;;1.33;0.50;;;14.40;99.90;;;;;;5067284;28;20632;-80
2022/09/10 02:00:27;;;;;;;0.50;0.40;;;14.30;99.90;;;;;;5068169;28;20620;-81
2022/09/10 02:03:00;;;;;;;1.00;0.37;;;14.30;99.90;;;;;;5067786;28;20692;-81
2022/09/10 02:05:30;;;;;;;0.40;0.30;;;14.40;99.90;;;;;;5067646;28;20697;-81
2022/09/10 02:08:01;;;;;;;0.30;0.20;;;14.40;99.90;;;;;;5067616;28;20701;-81
2022/09/10 02:10:28;;;;;;;0.43;0.43;;;14.40;99.90;;;;;;5067863;28;20631;-80
2022/09/10 02:12:55;;;;;;;0.70;0.70;;;14.30;99.90;;;;;;5067408;28;21369;-81
2022/09/10 02:15:25;;;;;;;0.40;0.20;;;14.30;99.90;;;;;;5088062;28;20613;-80
2022/09/10 02:17:55;;;;;;;0.53;0.53;;;14.30;99.90;;;;;;5088691;28;21051;-80
2022/09/10 02:20:23;;;;;;;0.47;0.47;;;14.30;99.90;;;;;;5067611;28;20626;-80
2022/09/10 02:22:55;;;;;;;1.33;0.63;;;14.40;99.90;;;;;;5067861;28;20684;-81
2022/09/10 02:25:24;;;;;;;3.60;1.63;;;14.30;99.90;;;;;;5067574;28;20626;-81
2022/09/10 02:27:53;;;;;;;1.73;1.20;;;14.40;99.90;;;;;;5067090;28;20620;-80
2022/09/10 02:30:23;;;;;;;0.50;0.50;;;14.30;99.90;;;;;;5066651;28;20630;-79
2022/09/10 02:32:51;;;;;;;0.30;0.20;;;14.30;99.90;;;;;;5056725;28;20677;-80
2022/09/10 02:35:21;;;;;;;0.43;0.40;;;14.30;99.90;;;;;;5066950;28;20733;-81
2022/09/10 02:37:49;;;;;;;0.50;0.50;;;14.30;99.90;;;;;;5066355;28;20625;-80
2022/09/10 02:40:18;;;;;;;0.30;0.27;;;14.30;99.90;;;;;;5066127;28;21219;-81
2022/09/10 02:42:46;;;;;;;0.73;0.33;;;14.40;99.90;;;;;;5066578;28;20660;-79
2022/09/10 02:45:14;;;;;;;0.40;0.30;;;14.40;99.90;;;;;;5066725;28;20610;-79
2022/09/10 02:47:41;;;;;;;0.30;0.30;;;14.40;99.90;;;;;;5067195;28;20680;-80
2022/09/10 02:50:10;;;;;;;0.40;0.30;;;14.40;99.90;;;;;;5067490;28;20614;-80
2022/09/10 02:52:40;;;;;;;0.73;0.60;;;14.40;99.90;;;;;;5067250;28;21038;-82
2022/09/10 02:55:08;;;;;;;0.40;0.40;;;14.50;99.90;;;;;;5046907;28;20952;-80
2022/09/10 02:57:36;;;;;;;0.57;0.50;;;14.40;99.90;;;;;;5053650;28;20622;-81
2022/09/10 03:00:04;;;;;;;0.77;0.60;;;14.40;99.90;;;;;;5075513;28;20622;-80
2022/09/10 03:02:31;;;;;;;0.70;0.40;;;14.40;99.90;;;;;;5073020;28;21252;-81
2022/09/10 03:04:58;;;;;;;0.40;0.40;;;14.50;99.90;;;;;;5085922;28;21208;-81
2022/09/10 03:07:25;;;;;;;0.60;0.37;;;14.50;99.90;;;;;;5051191;28;20717;-81
2022/09/10 03:09:53;;;;;;;0.70;0.40;;;14.50;99.90;;;;;;5066097;28;20721;-81
2022/09/10 03:12:20;;;;;;;0.83;0.40;;;14.50;99.90;;;;;;5067200;28;21025;-81
2022/09/10 03:14:47;;;;;;;0.90;0.60;;;14.50;99.90;;;;;;5066582;28;21219;-81
2022/09/10 03:17:14;;;;;;;0.50;0.50;;;14.60;99.90;;;;;;5066501;28;20645;-80
2022/09/10 03:19:41;;;;;;;0.90;0.70;;;14.60;99.90;;;;;;5067425;28;21019;-80
2022/09/10 03:22:10;;;;;;;0.40;0.40;;;14.60;99.90;;;;;;5066253;28;20665;-81
2022/09/10 03:24:37;;;;;;;0.90;0.53;;;14.60;99.90;;;;;;5066458;28;20974;-81
2022/09/10 03:27:05;;;;;;;0.87;0.67;;;14.60;99.90;;;;;;5066865;28;20629;-81
2022/09/10 03:29:32;;;;;;;0.63;0.63;;;14.60;99.90;;;;;;5080680;28;20682;-80
2022/09/10 03:32:00;;;;;;;0.47;0.33;;;14.60;99.90;;;;;;5069577;28;20641;-81
2022/09/10 03:34:26;;;;;;;1.10;1.00;;;14.60;99.90;;;;;;5065570;28;20629;-81
2022/09/10 03:36:53;;;;;;;0.50;0.50;;;14.70;99.90;;;;;;5066082;28;20708;-82
2022/09/10 03:39:20;;;;;;;0.73;0.67;;;14.60;99.90;;;;;;5066868;28;20724;-82
2022/09/10 03:41:47;;;;;;;0.93;0.87;;;14.60;99.90;;;;;;5066488;28;20676;-81
2022/09/10 03:44:16;;;;;;;0.43;0.43;;;14.70;99.90;;;;;;5066300;28;20613;-80
2022/09/10 03:46:44;;;;;;;0.60;0.60;;;14.50;99.90;;;;;;5066932;28;20661;-81
2022/09/10 03:49:11;;;;;;;1.00;0.90;;;14.60;99.90;;;;;;5067245;28;21199;-81
2022/09/10 03:51:38;;;;;;;0.37;0.37;;;14.60;99.90;;;;;;5066658;28;20616;-82
2022/09/10 03:54:05;;;;;;;0.50;0.50;;;14.50;99.90;;;;;;5046942;28;20622;-80
2022/09/10 03:56:31;;;;;;;0.83;0.73;;;14.60;99.90;;;;;;5059548;28;20635;-81
2022/09/10 03:58:59;;;;;;;0.43;0.40;;;14.50;99.90;;;;;;5069674;28;21270;-81
2022/09/10 04:01:27;;;;;;;0.40;0.40;;;14.50;99.90;;;;;;5070638;28;20695;-81
2022/09/10 04:03:55;;;;;;;0.93;0.33;;;14.50;99.90;;;;;;5083799;28;20669;-81
2022/09/10 04:06:22;;;;;;;0.93;0.60;;;14.50;99.90;;;;;;5069305;28;20633;-81
2022/09/10 04:08:49;;;;;;;0.30;0.23;;;14.40;99.90;;;;;;5054068;28;20618;-81
2022/09/10 04:11:16;;;;;;;0.60;0.60;;;14.50;99.90;;;;;;5070225;28;20621;-82
2022/09/10 04:13:42;;;;;;;0.40;0.40;;;14.40;99.90;;;;;;5069942;28;20644;-81
2022/09/10 04:16:10;;;;;;;0.53;0.53;;;14.50;99.90;;;;;;5069704;28;21093;-81
2022/09/10 04:18:38;;;;;;;0.43;0.40;;;14.40;99.90;;;;;;5069078;28;20665;-80
2022/09/10 04:21:05;;;;;;;0.60;0.43;;;14.50;99.90;;;;;;5070388;28;20625;-81
2022/09/10 04:23:32;;;;;;;1.57;1.07;;;14.50;99.90;;;;;;5069172;28;20671;-81
2022/09/10 04:25:59;;;;;;;0.60;0.53;;;14.50;99.90;;;;;;5069585;28;21012;-81
2022/09/10 04:28:26;;;;;;;0.40;0.40;;;14.40;99.90;;;;;;5068816;28;20629;-81
2022/09/10 04:30:53;;;;;;;0.60;0.60;;;14.40;99.90;;;;;;5069911;28;20624;-81
2022/09/10 04:33:19;;;;;;;0.60;0.50;;;14.30;99.90;;;;;;5069114;28;20621;-81
2022/09/10 04:35:48;;;;;;;1.40;1.10;;;14.30;99.90;;;;;;5068881;28;20635;-80
2022/09/10 04:38:14;;;;;;;0.60;0.60;;;14.20;99.90;;;;;;5079264;28;20716;-81
2022/09/10 04:40:43;;;;;;;0.77;0.70;;;14.20;99.90;;;;;;5068904;28;20625;-81
2022/09/10 04:43:10;;;;;;;2.30;0.90;;;14.20;99.90;;;;;;5068751;28;20760;-81
2022/09/10 04:45:38;;;;;;;0.83;0.70;;;14.30;99.90;;;;;;5068755;28;20637;-82
2022/09/10 04:48:05;;;;;;;0.50;0.30;;;14.30;99.90;;;;;;5076463;28;20617;-82
2022/09/10 04:50:32;;;;;;;0.50;0.40;;;14.20;99.90;;;;;;5069358;28;20663;-81
2022/09/10 04:53:00;;;;;;;0.60;0.50;;;14.30;99.90;;;;;;5068061;28;20625;-79
2022/09/10 04:55:27;;;;;;;0.67;0.50;;;14.30;99.90;;;;;;5068651;28;20626;-80
2022/09/10 04:57:54;;;;;;;0.50;0.50;;;14.30;99.90;;;;;;5074480;28;20716;-80
2022/09/10 05:00:21;;;;;;;0.50;0.30;;;14.30;99.90;;;;;;5075986;28;20631;-79
2022/09/10 05:02:48;;;;;;;0.60;0.60;;;14.30;99.90;;;;;;5078238;28;20648;-80
2022/09/10 05:05:15;;;;;;;0.60;0.60;;;14.30;99.90;;;;;;5077018;28;20658;-80
2022/09/10 05:07:42;;;;;;;1.20;0.80;;;14.30;99.90;;;;;;5075928;28;21197;-79
2022/09/10 05:10:10;;;;;;;0.30;0.30;;;14.40;99.90;;;;;;5073839;28;20617;-79
2022/09/10 05:12:37;;;;;;;0.50;0.40;;;14.40;99.90;;;;;;5073904;28;20717;-81
2022/09/10 05:15:05;;;;;;;0.63;0.50;;;14.30;99.90;;;;;;5072415;28;20623;-79
2022/09/10 05:17:32;;;;;;;0.67;0.60;;;14.40;99.90;;;;;;5073463;28;21079;-79
2022/09/10 05:19:59;;;;;;;0.40;0.40;;;14.30;99.90;;;;;;5072454;28;20614;-80
2022/09/10 05:22:26;;;;;;;0.57;0.57;;;14.40;99.90;;;;;;5068571;28;20677;-79
2022/09/10 05:24:54;;;;;;;0.60;0.43;;;14.40;99.90;;;;;;5075200;28;20716;-80
2022/09/10 05:27:22;;;;;;;0.50;0.37;;;14.40;99.90;;;;;;5076370;28;20732;-81
2022/09/10 05:29:49;;;;;;;3.13;0.87;;;14.40;99.90;;;;;;5068204;28;20644;-80
2022/09/10 05:32:17;;;;;;;1.07;0.67;;;14.40;99.90;;;;;;5068276;28;20691;-80
2022/09/10 05:34:47;;;;;;;0.30;0.30;;;14.40;99.90;;;;;;5067706;28;20633;-80
2022/09/10 05:37:14;;;;;;;0.60;0.60;;;14.30;99.90;;;;;;5066914;28;20634;-81
2022/09/10 05:39:41;;;;;;;0.60;0.40;;;14.40;99.90;;;;;;5062741;28;21183;-81
2022/09/10 05:42:08;;;;;;;0.50;0.30;;;14.30;99.90;;;;;;5065501;28;20645;-81
2022/09/10 05:44:36;;;;;;;0.50;0.50;;;14.40;99.90;;;;;;5064693;28;20673;-82
2022/09/10 05:47:03;;;;;;;0.50;0.30;;;14.30;99.90;;;;;;5066760;28;21021;-81
2022/09/10 05:49:30;;;;;;;0.47;0.47;;;14.40;99.90;;;;;;5067309;28;21208;-81
2022/09/10 05:51:56;;;;;;;0.50;0.50;;;14.40;99.90;;;;;;5068214;28;20629;-81
2022/09/10 05:54:23;;;;;;;0.60;0.60;;;14.40;99.90;;;;;;5066468;28;20672;-81
2022/09/10 05:56:50;;;;;;;0.70;0.40;;;14.40;99.90;;;;;;5067665;28;20625;-82
2022/09/10 05:59:17;;;;;;;0.50;0.47;;;14.50;99.90;;;;;;5067083;28;20633;-83
2022/09/10 06:01:45;;;;;;;0.50;0.33;;;14.50;99.90;;;;;;5067779;28;20728;-81
2022/09/10 06:04:14;;;;;;;0.50;0.50;;;14.50;99.90;;;;;;5064629;28;20667;-80
2022/09/10 06:06:41;;;;;;;0.50;0.50;;;14.50;99.90;;;;;;5067081;28;20625;-81
2022/09/10 06:09:08;;;;;;;0.40;0.40;;;14.50;99.90;;;;;;5067514;28;20717;-81
2022/09/10 06:11:35;;;;;;;0.63;0.50;;;14.40;99.90;;;;;;5068229;28;20729;-80
2022/09/10 06:14:02;;;;;;;0.63;0.60;;;14.50;99.90;;;;;;5067303;28;20621;-81
2022/09/10 06:16:29;;;;;;;11.03;5.40;;;14.50;99.90;;;;;;5078941;28;20624;-81
2022/09/10 06:18:58;;;;;;;1.60;1.50;;;14.50;99.90;;;;;;5065297;28;20621;-80
2022/09/10 06:21:26;;;;;;;1.23;0.57;;;14.50;99.90;;;;;;5065566;28;20633;-81
2022/09/10 06:23:53;;;;;;;0.60;0.60;;;14.50;99.90;;;;;;5077209;28;20701;-80
2022/09/10 06:26:21;;;;;;;0.40;0.40;;;14.50;99.90;;;;;;5067394;28;20625;-81
2022/09/10 06:28:48;;;;;;;0.50;0.50;;;14.50;99.90;;;;;;5066968;28;20729;-80
2022/09/10 06:31:18;;;;;;;0.40;0.30;;;14.60;99.90;;;;;;5067493;28;21191;-81
2022/09/10 06:33:45;;;;;;;0.50;0.50;;;14.60;99.90;;;;;;5067048;28;20644;-81
2022/09/10 06:36:14;;;;;;;0.50;0.40;;;14.70;99.90;;;;;;5068763;28;21183;-81
2022/09/10 06:38:43;;;;;;;0.70;0.50;;;14.60;99.90;;;;;;5067670;28;20621;-80
2022/09/10 06:41:13;;;;;;;0.60;0.47;;;14.70;99.90;;;;;;5067444;28;20989;-80
2022/09/10 06:43:40;;;;;;;0.67;0.60;;;14.70;99.90;;;;;;5068976;28;20714;-80
2022/09/10 06:46:09;;;;;;;1.17;0.70;;;14.80;99.90;;;;;;5079763;28;20730;-81
2022/09/10 06:48:39;;;;;;;0.50;0.30;;;14.80;99.90;;;;;;5066438;28;20632;-80
2022/09/10 06:51:07;;;;;;;0.60;0.60;;;14.90;99.90;;;;;;5067645;28;20621;-80
2022/09/10 06:53:37;;;;;;;0.40;0.40;;;14.90;99.90;;;;;;5066722;28;20626;-81
2022/09/10 06:56:07;;;;;;;0.40;0.40;;;14.90;99.90;;;;;;5071735;28;20628;-81
2022/09/10 06:58:34;;;;;;;0.50;0.40;;;14.90;99.90;;;;;;5073179;28;20626;-80
2022/09/10 07:01:07;;;;;;;0.50;0.40;;;15.00;99.90;;;;;;5069505;28;20691;-80
2022/09/10 07:03:34;;;;;;;0.60;0.60;;;14.90;99.90;;;;;;5066653;28;20668;-83
2022/09/10 07:06:04;;;;;;;0.80;0.60;;;15.10;99.90;;;;;;5066145;28;20624;-80
2022/09/10 07:08:31;;;;;;;0.30;0.20;;;15.10;99.90;;;;;;5066522;28;20636;-81
2022/09/10 07:11:02;;;;;;;0.70;0.63;;;15.10;99.90;;;;;;5067049;28;20667;-81
2022/09/10 07:13:29;;;;;;;0.83;0.70;;;15.30;99.90;;;;;;5083280;28;20632;-80
2022/09/10 07:15:56;;;;;;;0.60;0.60;;;15.30;99.90;;;;;;5078020;28;20628;-80
2022/09/10 07:18:32;;;;;;;0.40;0.40;;;15.30;99.90;;;;;;5071922;28;20904;-84
2022/09/10 07:21:07;;;;;;;0.40;0.40;;;15.30;99.90;;;;;;5073410;28;20644;-82
2022/09/10 07:23:34;;;;;;;0.47;0.40;;;15.40;99.90;;;;;;5070833;28;20663;-83
2022/09/10 07:26:05;;;;;;;0.90;0.70;;;15.40;99.90;;;;;;5065609;28;21086;-82
2022/09/10 07:28:32;;;;;;;0.40;0.30;;;15.30;99.90;;;;;;5066466;28;20738;-83
2022/09/10 07:30:58;;;;;;;0.90;0.63;;;15.30;99.90;;;;;;5066348;28;20622;-82
2022/09/10 07:33:25;;;;;;;0.33;0.33;;;15.30;99.90;;;;;;5069949;28;20643;-82
2022/09/10 07:35:52;;;;;;;0.60;0.40;;;15.30;99.90;;;;;;5072310;28;20632;-80
2022/09/10 07:38:19;;;;;;;0.70;0.40;;;15.30;99.90;;;;;;5077466;28;20636;-81
2022/09/10 07:40:47;;;;;;;0.53;0.40;;;15.30;99.90;;;;;;5069227;28;20699;-82
2022/09/10 07:43:16;;;;;;;0.40;0.40;;;15.40;99.90;;;;;;5070133;28;20653;-80
2022/09/10 07:45:43;;;;;;;0.40;0.40;;;15.50;99.90;;;;;;5069577;28;21229;-81
2022/09/10 07:48:12;;;;;;;0.60;0.50;;;15.50;99.90;;;;;;5072212;28;20631;-81
2022/09/10 07:50:38;;;;;;;0.53;0.53;;;15.60;99.90;;;;;;5074072;28;20633;-80
2022/09/10 07:53:05;;;;;;;0.40;0.40;;;15.50;99.90;;;;;;5074821;28;21289;-81
2022/09/10 07:55:32;;;;;;;1.50;0.80;;;15.50;99.90;;;;;;5075437;28;21094;-81
2022/09/10 07:57:59;;;;;;;0.50;0.40;;;15.50;99.90;;;;;;5074929;28;20203;-83
2022/09/10 08:00:28;;;;;;;1.33;0.87;;;15.40;99.90;;;;;;5082722;28;20647;-82
2022/09/10 08:02:55;;;;;;;0.83;0.50;;;15.50;99.90;;;;;;5069718;28;20625;-82
2022/09/10 08:05:22;;;;;;;0.60;0.40;;;15.50;99.90;;;;;;5068480;28;20667;-81
2022/09/10 08:07:52;;;;;;;0.50;0.40;;;15.50;99.90;;;;;;5073473;28;20625;-80
2022/09/10 08:10:19;;;;;;;0.50;0.50;;;15.50;99.90;;;;;;5070000;28;20621;-82
2022/09/10 08:12:46;;;;;;;1.00;0.60;;;15.40;99.90;;;;;;5069190;28;21102;-82
2022/09/10 08:15:13;;;;;;;0.87;0.57;;;15.50;99.90;;;;;;5068869;28;20721;-81
2022/09/10 08:17:41;;;;;;;0.30;0.30;;;15.60;99.90;;;;;;5069953;28;20633;-82
2022/09/10 08:20:09;;;;;;;0.50;0.23;;;15.50;99.90;;;;;;5070033;28;20628;-81
2022/09/10 08:22:36;;;;;;;1.23;0.80;;;15.50;99.90;;;;;;5069838;28;20672;-80
2022/09/10 08:25:03;;;;;;;0.60;0.50;;;15.70;99.90;;;;;;5069131;28;21145;-80
2022/09/10 08:27:31;;;;;;;0.40;0.40;;;15.50;99.90;;;;;;5057798;28;20660;-81
2022/09/10 08:29:58;;;;;;;0.70;0.40;;;15.60;99.90;;;;;;5053305;28;20729;-81
2022/09/10 08:32:26;;;;;;;0.80;0.47;;;15.70;99.90;;;;;;5058710;28;20641;-81
2022/09/10 08:34:54;;;;;;;0.50;0.37;;;15.80;99.90;;;;;;5065398;28;21076;-82
2022/09/10 08:37:21;;;;;;;0.60;0.60;;;15.90;99.90;;;;;;5069145;28;20695;-82
2022/09/10 08:39:48;;;;;;;1.67;0.90;;;16.00;99.90;;;;;;5069575;28;20629;-81
2022/09/10 08:42:20;;;;;;;0.50;0.50;;;16.10;99.90;;;;;;5075424;28;20988;-84
2022/09/10 08:44:50;;;;;;;0.40;0.40;;;16.10;99.90;;;;;;5051418;28;20658;-85
2022/09/10 08:47:26;;;;;;;0.50;0.50;;;16.20;99.90;;;;;;5054746;28;21191;-85
2022/09/10 08:49:57;;;;;;;0.30;0.30;;;16.30;99.90;;;;;;5074288;28;20621;-84
2022/09/10 08:52:29;;;;;;;0.50;0.30;;;16.30;99.90;;;;;;5082316;28;20620;-84
2022/09/10 08:55:02;;;;;;;0.30;0.20;;;16.40;99.90;;;;;;5069925;28;20625;-83
2022/09/10 08:57:36;;;;;;;0.43;0.43;;;16.40;99.90;;;;;;5072047;28;20631;-84
2022/09/10 09:00:06;;;;;;;1.03;0.60;;;16.40;99.90;;;;;;5070694;28;20634;-84
2022/09/10 09:02:45;;;;;;;0.50;0.40;;;16.50;99.90;;;;;;5072113;28;21205;-82
2022/09/10 09:05:17;;;;;;;0.40;0.40;;;16.50;99.90;;;;;;5072026;28;20676;-83
2022/09/10 09:07:45;;;;;;;0.50;0.50;;;16.50;99.90;;;;;;5070681;28;20636;-83
2022/09/10 09:10:20;;;;;;;0.50;0.50;;;16.60;99.90;;;;;;5080268;28;20732;-84
2022/09/10 09:13:04;;;;;;;0.70;0.60;;;16.50;99.90;;;;;;5085947;28;20628;-83
2022/09/10 09:15:43;;;;;;;1.75;0.93;;;16.60;99.90;;;;;;5070914;28;20743;-83
2022/09/10 09:18:21;;;;;;;0.50;0.20;;;16.60;99.90;;;;;;5077180;28;20884;-83
2022/09/10 09:20:54;;;;;;;0.50;0.50;;;16.70;99.90;;;;;;5067790;28;20629;-83
2022/09/10 09:23:23;;;;;;;1.10;0.57;;;16.70;99.90;;;;;;5068387;28;20626;-84
2022/09/10 09:25:53;;;;;;;0.37;0.30;;;16.70;99.90;;;;;;5068519;28;20621;-84
2022/09/10 09:28:30;;;;;;;1.83;0.90;;;16.90;99.90;;;;;;5061004;28;20629;-80
2022/09/10 09:31:01;;;;;;;0.50;0.43;;;16.80;99.90;;;;;;5064847;28;20626;-83
2022/09/10 09:33:30;;;;;;;6.03;1.70;;;17.00;99.90;;;;;;5064698;28;21436;-84
2022/09/10 09:36:01;;;;;;;0.40;0.40;;;17.00;99.90;;;;;;5066442;28;20798;-85
2022/09/10 09:38:32;;;;;;;0.30;0.30;;;17.20;99.90;;;;;;5067392;28;21170;-84
2022/09/10 09:41:05;;;;;;;2.70;0.70;;;17.30;99.90;;;;;;5067001;28;21086;-83
2022/09/10 09:43:42;;;;;;;0.60;0.50;;;17.20;99.00;;;;;;5067898;28;20629;-84
2022/09/10 09:46:14;;;;;;;0.40;0.40;;;17.20;99.60;;;;;;5067057;28;20739;-83
2022/09/10 09:48:42;;;;;;;1.90;0.30;;;17.00;99.30;;;;;;5068062;28;20629;-84
2022/09/10 09:51:13;;;;;;;0.83;0.70;;;17.00;99.50;;;;;;5067706;28;20644;-84
2022/09/10 09:53:40;;;;;;;4.07;1.70;;;16.90;99.40;;;;;;5067577;28;20893;-84
2022/09/10 09:56:14;;;;;;;0.73;0.73;;;17.10;99.30;;;;;;5066350;28;21021;-83
2022/09/10 09:58:48;;;;;;;1.00;0.37;;;17.20;99.90;;;;;;5067773;28;20618;-84
2022/09/10 10:01:23;;;;;;;0.53;0.40;;;17.10;99.50;;;;;;5067244;28;20707;-84
2022/09/10 10:03:57;;;;;;;0.73;0.50;;;17.20;99.60;;;;;;5067650;28;20631;-84
2022/09/10 10:06:28;;;;;;;0.60;0.60;;;17.30;99.90;;;;;;5066823;28;20649;-84
2022/09/10 10:08:58;;;;;;;0.50;0.50;;;17.30;98.70;;;;;;5067623;28;20634;-82
2022/09/10 10:11:45;;;;;;;0.50;0.40;;;17.30;99.00;;;;;;5068098;28;20622;-84
2022/09/10 10:14:20;;;;;;;0.60;0.40;;;17.40;99.50;;;;;;5067571;28;20617;-82
2022/09/10 10:16:48;;;;;;;1.57;0.67;;;17.50;99.00;;;;;;5068221;28;21245;-83
2022/09/10 10:19:39;;;;;;;0.50;0.40;;;17.60;98.20;;;;;;5067809;28;20614;-82
2022/09/10 10:22:24;;;;;;;0.50;0.30;;;17.80;98.60;;;;;;5043009;28;20634;-83
2022/09/10 10:24:53;;;;;;;1.00;0.50;;;17.60;98.90;;;;;;5048063;28;20652;-84
2022/09/10 10:27:31;;;;;;;0.60;0.60;;;17.80;98.30;;;;;;5051371;28;21246;-83
2022/09/10 10:30:21;;;;;;;0.57;0.40;;;17.90;97.50;;;;;;5066388;28;20630;-84
2022/09/10 10:32:52;;;;;;;0.50;0.50;;;17.80;98.10;;;;;;5067202;28;20641;-83
2022/09/10 10:35:41;;;;;;;0.40;0.40;;;17.70;97.20;;;;;;5066911;28;20622;-85
2022/09/10 10:38:41;;;;;;;0.53;0.40;;;17.70;98.00;;;;;;5066719;28;20720;-84
2022/09/10 10:41:41;;;;;;;0.50;0.50;;;17.60;98.10;;;;;;4985037;28;21928;-84
2022/09/10 10:44:30;;;;;;;0.50;0.30;;;17.70;98.40;;;;;;5060702;28;20620;-84
2022/09/10 10:47:15;;;;;;;0.50;0.50;;;17.80;98.00;;;;;;5064003;28;20672;-83
2022/09/10 10:49:52;;;;;;;0.90;0.63;;;17.70;97.60;;;;;;5065030;28;21199;-84
2022/09/10 10:52:29;;;;;;;0.40;0.40;;;17.60;96.50;;;;;;5066592;28;20620;-83
2022/09/10 10:55:10;;;;;;;0.47;0.47;;;17.80;97.50;;;;;;5052006;28;20687;-82
2022/09/10 10:57:50;;;;;;;0.70;0.53;;;18.20;97.20;;;;;;5067211;28;20757;-83
2022/09/10 11:00:18;;;;;;;0.30;0.30;;;18.50;96.10;;;;;;5079803;28;20640;-84
2022/09/10 11:02:53;;;;;;;0.30;0.20;;;18.70;96.10;;;;;;5065329;28;20645;-84
2022/09/10 11:05:27;;;;;;;0.37;0.30;;;18.70;94.30;;;;;;5067677;28;21094;-85
2022/09/10 11:07:55;;;;;;;0.40;0.23;;;18.60;94.80;;;;;;5070721;28;20637;-84
2022/09/10 11:10:29;;;;;;;0.40;0.30;;;18.50;94.90;;;;;;5071269;28;20617;-84
2022/09/10 11:13:04;;;;;;;0.73;0.70;;;18.50;94.00;;;;;;5071515;28;20683;-84
2022/09/10 11:15:34;;;;;;;0.50;0.40;;;18.50;93.80;;;;;;5070911;28;20617;-84
2022/09/10 11:18:09;;;;;;;0.50;0.43;;;18.40;94.00;;;;;;5071231;28;20621;-84
2022/09/10 11:20:42;;;;;;;0.60;0.37;;;18.30;94.60;;;;;;5071428;28;20707;-84
2022/09/10 11:23:24;;;;;;;1.07;0.40;;;18.30;94.70;;;;;;5070762;28;20625;-84
2022/09/10 11:25:59;;;;;;;1.10;0.60;;;18.50;94.90;;;;;;5049146;28;20662;-85
2022/09/10 11:28:30;;;;;;;1.73;0.53;;;18.50;93.50;;;;;;5053779;28;20652;-84
2022/09/10 11:31:03;;;;;;;0.57;0.33;;;18.40;93.20;;;;;;5068452;28;21100;-84
2022/09/10 11:33:36;;;;;;;0.40;0.30;;;18.50;93.80;;;;;;5071357;28;21254;-84
2022/09/10 11:36:10;;;;;;;0.53;0.43;;;18.50;93.40;;;;;;5070560;28;21056;-83
2022/09/10 11:38:47;;;;;;;1.17;0.90;;;18.50;93.30;;;;;;5069648;28;20621;-83
2022/09/10 11:41:20;;;;;;;0.50;0.47;;;18.70;93.90;;;;;;5069304;28;20633;-83
2022/09/10 11:43:52;;;;;;;0.40;0.30;;;18.60;92.80;;;;;;5069421;28;20626;-83
2022/09/10 11:46:24;;;;;;;0.40;0.40;;;18.70;92.30;;;;;;5068448;28;20675;-83
2022/09/10 11:48:58;;;;;;;0.50;0.40;;;18.70;92.10;;;;;;5068118;28;21136;-83
2022/09/10 11:51:30;;;;;;;1.37;0.60;;;18.60;92.00;;;;;;5068748;28;21178;-83
2022/09/10 11:53:57;;;;;;;0.40;0.23;;;18.80;91.60;;;;;;5069069;28;20633;-84
2022/09/10 11:56:39;;;;;;;0.50;0.50;;;18.80;91.80;;;;;;5069469;28;20716;-83
2022/09/10 11:59:18;;;;;;;0.40;0.40;;;18.70;91.40;;;;;;5069251;28;21190;-83
2022/09/10 12:02:02;;;;;;;0.50;0.50;;;18.80;91.70;;;;;;5068611;28;20652;-82
2022/09/10 12:04:44;;;;;;;0.80;0.53;;;18.80;90.70;;;;;;5068425;28;21089;-84
2022/09/10 12:07:20;;;;;;;0.40;0.40;;;18.90;91.20;;;;;;5081634;28;20628;-83
2022/09/10 12:09:56;;;;;;;0.57;0.30;;;19.10;90.00;;;;;;5070349;28;20625;-84
2022/09/10 12:12:30;;;;;;;0.30;0.23;;;19.20;91.20;;;;;;5069298;28;20835;-84
2022/09/10 12:14:58;;;;;;;0.57;0.50;;;19.30;87.40;;;;;;5069990;28;20640;-83
2022/09/10 12:17:29;;;;;;;0.70;0.60;;;19.40;89.90;;;;;;5069368;28;20655;-84
2022/09/10 12:19:58;;;;;;;1.13;0.40;;;19.40;89.50;;;;;;5069902;28;21194;-84
2022/09/10 12:22:29;;;;;;;0.40;0.40;;;19.50;88.10;;;;;;5069694;28;20750;-83
2022/09/10 12:25:01;;;;;;;0.40;0.40;;;19.60;90.30;;;;;;5071041;28;20688;-84
2022/09/10 12:31:01;;;;;;;0.77;0.60;;;19.60;87.90;;;;;;5123180;27;20719;-82
2022/09/10 12:34:13;;;;;;;0.80;0.57;;;19.50;86.20;;;;;;5123270;27;21178;-82
2022/09/10 12:37:13;;;;;;;0.40;0.40;;;19.50;85.80;;;;;;5124423;27;20635;-81
2022/09/10 12:39:41;;;;;;;0.47;0.47;;;19.50;87.30;;;;;;5124969;27;21186;-82
2022/09/10 12:42:29;;;;;;;0.47;0.47;;;19.40;87.20;;;;;;5124747;27;20699;-83
2022/09/10 12:44:56;;;;;;;0.60;0.60;;;19.30;86.60;;;;;;5124645;27;20949;-81
2022/09/10 12:47:51;;;;;;;0.67;0.67;;;19.20;88.50;;;;;;5125892;27;20959;-81
2022/09/10 12:50:37;;;;;;;1.30;0.47;;;19.00;89.00;;;;;;5125692;27;20690;-80
2022/09/10 12:53:43;;;;;;;0.53;0.43;;;19.00;88.50;;;;;;5106244;27;20993;-81
2022/09/10 12:56:31;;;;;;;0.40;0.30;;;18.70;88.80;;;;;;5104760;28;20967;-80
2022/09/10 12:59:25;;;;;;;0.70;0.67;;;18.50;88.60;;;;;;5112239;28;20624;-81
2022/09/10 13:01:52;;;;;;;0.40;0.40;;;18.60;89.90;;;;;;5105706;28;21060;-81
2022/09/10 13:04:27;;;;;;;1.07;0.60;;;18.70;90.60;;;;;;5117046;27;20620;-80
2022/09/10 13:06:57;;;;;;;0.60;0.50;;;18.70;88.60;;;;;;5117750;28;20682;-80
2022/09/10 13:09:28;;;;;;;0.73;0.70;;;18.70;89.40;;;;;;5114332;27;20663;-80
2022/09/10 13:11:59;;;;;;;0.40;0.30;;;18.80;90.50;;;;;;5104384;28;20612;-81